Time;durP1;ratioP1;P1;durP2;ratioP2;P2;SDS_P1;SDS_P2;PMS_P1;PMS_P2;Temp;Humidity;BMP_temperature;BMP_pressure;BME280_temperature;BME280_humidity;BME280_pressure;Samples;Min_cycle;Max_cycle;Signal;HPM_P1;HPM_P2
2022/09/23 00:01:33;;;;;;;2.70;2.50;;;9.60;99.90;;;;;;5070660;28;20388;-71
2022/09/23 00:03:59;;;;;;;3.10;2.85;;;9.60;99.90;;;;;;5070350;28;20402;-71
2022/09/23 00:06:28;;;;;;;3.20;3.00;;;9.50;99.90;;;;;;5067886;28;20407;-70
2022/09/23 00:08:54;;;;;;;4.05;2.97;;;9.50;99.90;;;;;;5052254;28;20416;-71
2022/09/23 00:11:25;;;;;;;2.90;2.70;;;9.50;99.90;;;;;;5070225;28;20437;-72
2022/09/23 00:13:54;;;;;;;3.00;2.80;;;9.30;99.90;;;;;;5052237;28;20376;-71
2022/09/23 00:16:25;;;;;;;3.40;3.10;;;9.40;99.90;;;;;;5051457;28;20392;-71
2022/09/23 00:18:51;;;;;;;2.90;2.70;;;9.40;99.90;;;;;;5069641;28;20835;-71
2022/09/23 00:21:18;;;;;;;3.40;3.10;;;9.30;99.90;;;;;;5068943;28;20509;-71
2022/09/23 00:23:43;;;;;;;3.90;2.80;;;9.20;99.90;;;;;;5051388;28;20777;-71
2022/09/23 00:26:12;;;;;;;3.08;2.78;;;9.30;99.90;;;;;;5068723;28;20403;-71
2022/09/23 00:28:37;;;;;;;2.85;2.65;;;9.10;99.90;;;;;;5070051;28;20407;-70
2022/09/23 00:31:15;;;;;;;3.30;2.80;;;9.10;99.90;;;;;;5069217;28;20456;-71
2022/09/23 00:33:41;;;;;;;3.10;2.70;;;9.20;99.90;;;;;;5063047;28;20384;-70
2022/09/23 00:36:09;;;;;;;3.10;2.80;;;9.10;99.90;;;;;;5069277;28;20412;-71
2022/09/23 00:38:36;;;;;;;2.78;2.58;;;9.10;99.90;;;;;;5061725;28;20718;-71
2022/09/23 00:41:02;;;;;;;3.05;2.60;;;9.00;99.90;;;;;;5069258;28;20489;-71
2022/09/23 00:43:54;;;;;;;2.67;2.47;;;9.00;99.90;;;;;;5069215;28;20391;-70
2022/09/23 00:46:27;;;;;;;2.88;2.50;;;9.10;99.90;;;;;;5069138;28;20607;-70
2022/09/23 00:48:58;;;;;;;2.50;2.30;;;9.10;99.90;;;;;;5069820;28;20411;-70
2022/09/23 00:51:30;;;;;;;3.00;2.57;;;9.00;99.90;;;;;;5068601;28;20393;-69
2022/09/23 00:53:56;;;;;;;3.60;2.40;;;9.00;99.90;;;;;;5073872;28;20400;-71
2022/09/23 00:56:23;;;;;;;2.70;2.50;;;9.00;99.90;;;;;;5068968;28;20399;-71
2022/09/23 00:58:50;;;;;;;2.88;2.65;;;9.00;99.90;;;;;;5069754;28;20862;-70
2022/09/23 01:01:16;;;;;;;2.60;2.40;;;9.00;99.90;;;;;;5050832;28;20439;-70
2022/09/23 01:03:44;;;;;;;2.97;2.55;;;8.90;99.90;;;;;;5069456;28;20907;-70
2022/09/23 01:06:10;;;;;;;2.70;2.50;;;8.90;99.90;;;;;;5068800;28;21066;-71
2022/09/23 01:08:36;;;;;;;2.40;2.20;;;9.00;99.90;;;;;;5068905;28;20415;-70
2022/09/23 01:11:27;;;;;;;2.40;2.20;;;8.90;99.90;;;;;;5068881;28;20909;-70
2022/09/23 01:14:08;;;;;;;2.50;2.30;;;8.80;99.90;;;;;;5063049;28;20382;-70
2022/09/23 01:16:51;;;;;;;3.00;2.50;;;8.80;99.90;;;;;;5061614;28;20388;-70
2022/09/23 01:19:47;;;;;;;2.90;2.60;;;8.90;99.90;;;;;;5069021;28;20473;-70
2022/09/23 01:22:38;;;;;;;2.70;2.03;;;9.00;99.90;;;;;;5069231;28;20414;-71
2022/09/23 01:25:39;;;;;;;2.13;2.03;;;9.00;99.90;;;;;;5065583;28;20376;-70
2022/09/23 01:28:26;;;;;;;3.90;2.53;;;9.00;99.90;;;;;;5070073;28;20423;-70
2022/09/23 01:31:21;;;;;;;2.22;2.03;;;9.00;99.90;;;;;;5102570;22;20444;-72
2022/09/23 01:34:21;;;;;;;2.38;2.17;;;9.00;99.90;;;;;;5103273;28;20476;-72
2022/09/23 01:37:08;;;;;;;2.88;2.22;;;9.00;99.90;;;;;;5109641;28;20372;-72
2022/09/23 01:39:39;;;;;;;2.80;2.20;;;8.80;99.90;;;;;;5108716;28;20397;-72
2022/09/23 01:42:17;;;;;;;2.40;2.20;;;8.70;99.90;;;;;;5092543;28;20401;-72
2022/09/23 01:44:55;;;;;;;3.43;2.43;;;8.80;99.90;;;;;;5070888;28;20764;-72
2022/09/23 01:47:29;;;;;;;3.88;3.00;;;8.80;99.90;;;;;;5089979;28;20412;-72
2022/09/23 01:50:54;;;;;;;2.70;2.30;;;8.70;99.90;;;;;;5095191;28;20408;-72
2022/09/23 01:52:52;;;;;;;3.42;2.50;;;8.80;99.90;;;;;;5091248;28;20378;-72
2022/09/23 01:55:30;;;;;;;2.25;2.05;;;8.70;99.90;;;;;;5089306;28;20382;-72
2022/09/23 01:58:18;;;;;;;2.33;2.10;;;8.70;99.90;;;;;;5096458;28;20497;-72
2022/09/23 02:00:59;;;;;;;3.03;2.25;;;8.70;99.90;;;;;;5069186;28;20384;-72
2022/09/23 02:03:31;;;;;;;2.40;2.20;;;8.60;99.90;;;;;;5072467;28;20379;-72
2022/09/23 02:06:20;;;;;;;2.00;1.80;;;8.60;99.90;;;;;;5054861;28;20403;-72
2022/09/23 02:08:50;;;;;;;2.72;2.53;;;8.60;99.90;;;;;;5093780;28;20450;-72
2022/09/23 02:11:17;;;;;;;3.00;2.20;;;8.60;99.90;;;;;;5099232;28;20399;-72
2022/09/23 02:13:48;;;;;;;2.50;2.30;;;8.60;99.90;;;;;;5078426;28;20505;-72
2022/09/23 02:16:29;;;;;;;2.40;2.20;;;8.50;99.90;;;;;;5081620;28;20690;-72
2022/09/23 02:19:12;;;;;;;2.50;2.00;;;8.50;99.90;;;;;;5103018;28;20799;-72
2022/09/23 02:21:42;;;;;;;2.50;2.10;;;8.60;99.90;;;;;;5072425;28;20398;-72
2022/09/23 02:24:13;;;;;;;3.05;2.17;;;8.50;99.90;;;;;;5071580;28;20402;-72
2022/09/23 02:26:49;;;;;;;2.25;2.05;;;8.50;99.90;;;;;;5081893;28;20396;-72
2022/09/23 02:29:27;;;;;;;2.45;2.25;;;8.50;99.90;;;;;;5092953;28;20392;-72
2022/09/23 02:32:11;;;;;;;2.50;2.30;;;8.50;99.90;;;;;;5095448;28;20721;-72
2022/09/23 02:35:09;;;;;;;2.40;2.10;;;8.50;99.90;;;;;;5088659;28;20392;-72
2022/09/23 02:38:00;;;;;;;2.65;2.45;;;8.40;99.90;;;;;;5087290;28;20769;-72
2022/09/23 02:40:37;;;;;;;3.70;2.17;;;8.50;99.90;;;;;;5091459;28;20817;-72
2022/09/23 02:43:34;;;;;;;2.45;2.25;;;8.60;99.90;;;;;;5099926;28;20407;-72
2022/09/23 02:46:02;;;;;;;2.30;2.10;;;8.50;99.90;;;;;;5096382;28;20382;-72
2022/09/23 02:48:42;;;;;;;2.80;2.20;;;8.50;99.90;;;;;;5112263;28;20393;-72
2022/09/23 02:51:09;;;;;;;3.45;2.83;;;8.70;99.90;;;;;;5100250;28;20891;-72
2022/09/23 02:53:35;;;;;;;2.40;2.20;;;8.80;99.90;;;;;;5103178;28;20745;-72
2022/09/23 02:56:11;;;;;;;2.17;1.98;;;8.80;99.90;;;;;;5109603;28;20376;-72
2022/09/23 02:58:37;;;;;;;2.00;1.90;;;8.80;99.90;;;;;;5078662;28;20835;-72
2022/09/23 03:01:40;;;;;;;2.40;2.20;;;8.80;99.90;;;;;;5081174;28;20537;-72
2022/09/23 03:04:13;;;;;;;4.00;2.90;;;8.70;99.90;;;;;;5087920;28;20406;-72
2022/09/23 03:06:59;;;;;;;2.60;2.40;;;8.60;99.90;;;;;;5078619;28;20415;-72
2022/09/23 03:09:47;;;;;;;2.40;2.20;;;8.70;99.90;;;;;;5080168;28;20909;-72
2022/09/23 03:12:16;;;;;;;2.50;2.30;;;8.70;99.90;;;;;;5081964;28;20451;-72
2022/09/23 03:15:01;;;;;;;2.30;2.10;;;8.50;99.90;;;;;;5087998;28;20400;-72
2022/09/23 03:17:36;;;;;;;2.50;2.30;;;8.50;99.90;;;;;;5098577;28;20477;-72
2022/09/23 03:20:08;;;;;;;2.30;2.10;;;8.40;99.90;;;;;;5077702;28;20809;-72
2022/09/23 03:22:40;;;;;;;2.70;2.50;;;8.40;99.90;;;;;;5074095;28;20426;-72
2022/09/23 03:25:11;;;;;;;3.80;2.30;;;8.30;99.90;;;;;;5097102;28;20404;-72
2022/09/23 03:27:41;;;;;;;2.50;2.30;;;8.30;99.90;;;;;;5103959;28;20403;-72
2022/09/23 03:30:07;;;;;;;3.20;2.10;;;8.30;99.90;;;;;;5081043;28;20463;-72
2022/09/23 03:32:35;;;;;;;2.00;1.90;;;8.30;99.90;;;;;;5108412;28;20386;-72
2022/09/23 03:35:02;;;;;;;2.58;2.33;;;8.30;99.90;;;;;;5099206;28;20759;-72
2022/09/23 03:37:34;;;;;;;2.28;2.05;;;8.20;99.90;;;;;;5091845;28;20441;-72
2022/09/23 03:40:03;;;;;;;3.20;2.40;;;8.20;99.90;;;;;;5067991;28;20399;-72
2022/09/23 03:42:31;;;;;;;3.20;2.50;;;8.20;99.90;;;;;;5102856;28;20389;-72
2022/09/23 03:44:58;;;;;;;2.50;2.30;;;8.20;99.90;;;;;;5111950;28;20387;-72
2022/09/23 03:47:25;;;;;;;2.50;2.30;;;8.20;99.90;;;;;;5102196;28;20403;-72
2022/09/23 03:49:51;;;;;;;3.13;2.58;;;8.20;99.90;;;;;;5106411;28;20900;-72
2022/09/23 03:52:19;;;;;;;2.42;2.20;;;8.30;99.90;;;;;;5099010;28;20968;-72
2022/09/23 03:54:45;;;;;;;2.67;2.47;;;8.30;99.90;;;;;;5105198;28;20396;-72
2022/09/23 03:57:11;;;;;;;2.60;2.40;;;8.30;99.90;;;;;;5102108;28;20388;-72
2022/09/23 03:59:37;;;;;;;2.30;2.10;;;8.30;99.90;;;;;;5092271;28;20440;-72
2022/09/23 04:02:04;;;;;;;3.00;2.47;;;8.30;99.90;;;;;;5105695;28;20785;-72
2022/09/23 04:04:33;;;;;;;2.60;2.40;;;8.40;99.90;;;;;;5103029;28;20383;-72
2022/09/23 04:06:59;;;;;;;2.90;2.60;;;8.40;99.90;;;;;;5097418;28;20824;-72
2022/09/23 04:09:25;;;;;;;2.60;2.40;;;8.30;99.90;;;;;;5102246;28;20921;-72
2022/09/23 04:11:51;;;;;;;3.47;2.70;;;8.30;99.90;;;;;;5111488;28;20377;-73
2022/09/23 04:14:18;;;;;;;2.70;2.50;;;8.30;99.90;;;;;;5104712;28;20403;-73
2022/09/23 04:16:44;;;;;;;2.70;2.50;;;8.30;99.90;;;;;;5101853;28;20419;-72
2022/09/23 04:19:11;;;;;;;2.85;2.65;;;8.30;99.90;;;;;;5102883;28;20434;-73
2022/09/23 04:21:37;;;;;;;3.78;2.72;;;8.30;99.90;;;;;;5111170;28;20792;-73
2022/09/23 04:24:04;;;;;;;3.60;2.80;;;8.50;99.90;;;;;;5093140;28;20404;-73
2022/09/23 04:26:30;;;;;;;2.60;2.40;;;8.40;99.90;;;;;;5080512;28;20386;-73
2022/09/23 04:28:56;;;;;;;2.70;2.50;;;8.60;99.90;;;;;;5088967;28;20451;-73
2022/09/23 04:31:24;;;;;;;2.70;2.50;;;8.60;99.90;;;;;;5087843;28;20498;-73
2022/09/23 04:33:52;;;;;;;2.60;2.40;;;8.60;99.90;;;;;;5090313;28;20382;-73
2022/09/23 04:36:17;;;;;;;2.50;2.30;;;8.50;99.90;;;;;;5085097;28;20563;-73
2022/09/23 04:38:45;;;;;;;2.53;2.20;;;8.50;99.90;;;;;;5097297;28;20435;-73
2022/09/23 04:41:10;;;;;;;2.60;2.40;;;8.50;99.90;;;;;;5072693;28;20390;-73
2022/09/23 04:43:36;;;;;;;2.58;2.30;;;8.50;99.90;;;;;;5087990;28;20883;-73
2022/09/23 04:46:04;;;;;;;2.60;2.40;;;8.50;99.90;;;;;;5095094;28;20914;-73
2022/09/23 04:48:29;;;;;;;2.80;2.60;;;8.50;99.90;;;;;;5093539;28;20400;-73
2022/09/23 04:51:08;;;;;;;3.30;2.70;;;8.50;99.90;;;;;;5090457;28;20400;-73
2022/09/23 04:53:38;;;;;;;2.90;2.20;;;8.40;99.90;;;;;;5080401;28;20396;-73
2022/09/23 04:56:10;;;;;;;3.00;2.70;;;8.40;99.90;;;;;;5078203;28;20435;-73
2022/09/23 04:58:36;;;;;;;2.90;2.13;;;8.40;99.90;;;;;;5093424;28;20830;-73
2022/09/23 05:01:12;;;;;;;2.53;2.33;;;8.30;99.90;;;;;;5096277;28;20432;-73
2022/09/23 05:03:38;;;;;;;3.17;2.70;;;8.30;99.90;;;;;;5078511;28;20514;-71
2022/09/23 05:06:04;;;;;;;4.00;3.00;;;8.40;99.90;;;;;;5086275;28;20425;-71
2022/09/23 05:08:29;;;;;;;3.85;3.03;;;8.30;99.90;;;;;;5082745;28;20404;-72
2022/09/23 05:10:59;;;;;;;3.33;3.03;;;8.30;99.90;;;;;;5095082;28;20929;-73
2022/09/23 05:13:25;;;;;;;2.92;2.72;;;8.30;99.90;;;;;;5085780;28;20378;-73
2022/09/23 05:16:03;;;;;;;2.90;2.70;;;8.30;99.90;;;;;;5084603;28;20396;-73
2022/09/23 05:18:37;;;;;;;3.47;2.75;;;8.40;99.90;;;;;;5090230;28;20386;-73
2022/09/23 05:21:03;;;;;;;3.33;2.70;;;8.40;99.90;;;;;;5089757;28;20418;-72
2022/09/23 05:23:29;;;;;;;3.63;2.60;;;8.50;99.90;;;;;;5073634;28;20931;-73
2022/09/23 05:26:00;;;;;;;2.85;2.65;;;8.40;99.90;;;;;;5087360;28;20457;-72
2022/09/23 05:28:31;;;;;;;3.28;2.95;;;8.40;99.90;;;;;;5088226;28;20438;-72
2022/09/23 05:31:17;;;;;;;2.78;2.58;;;8.30;99.90;;;;;;5083067;28;20480;-72
2022/09/23 05:33:45;;;;;;;2.72;2.53;;;8.40;99.90;;;;;;5081921;28;20406;-72
2022/09/23 05:36:13;;;;;;;2.65;2.45;;;8.60;99.90;;;;;;5084025;28;20414;-72
2022/09/23 05:38:39;;;;;;;3.70;2.70;;;8.60;99.90;;;;;;5094303;28;20374;-72
2022/09/23 05:41:06;;;;;;;4.50;2.70;;;8.60;99.90;;;;;;5076128;28;20382;-72
2022/09/23 05:43:33;;;;;;;3.08;2.80;;;8.60;99.90;;;;;;5092546;28;20453;-72
2022/09/23 05:46:08;;;;;;;3.60;3.00;;;8.80;99.90;;;;;;5093239;28;20453;-72
2022/09/23 05:48:35;;;;;;;2.92;2.63;;;8.80;99.90;;;;;;5093884;28;20409;-72
2022/09/23 05:51:02;;;;;;;3.00;2.72;;;8.80;99.90;;;;;;5093639;28;20398;-72
2022/09/23 05:53:29;;;;;;;2.85;2.60;;;8.80;99.90;;;;;;5089109;28;20403;-71
2022/09/23 05:55:55;;;;;;;3.05;2.85;;;8.90;99.90;;;;;;5085169;28;20399;-72
2022/09/23 05:58:22;;;;;;;3.25;2.95;;;8.80;99.90;;;;;;5084435;28;20756;-73
2022/09/23 06:00:49;;;;;;;4.03;2.90;;;8.90;99.90;;;;;;5078216;28;20756;-72
2022/09/23 06:03:17;;;;;;;3.13;2.83;;;8.90;99.90;;;;;;5103158;28;20972;-72
2022/09/23 06:05:43;;;;;;;3.30;3.00;;;9.00;99.90;;;;;;5095108;28;20555;-73
2022/09/23 06:08:09;;;;;;;3.80;2.70;;;9.00;99.90;;;;;;5100127;28;20496;-73
2022/09/23 06:10:45;;;;;;;2.97;2.77;;;9.00;99.90;;;;;;5111891;28;20380;-73
2022/09/23 06:13:11;;;;;;;5.03;2.90;;;9.00;99.90;;;;;;5080487;28;20400;-72
2022/09/23 06:15:37;;;;;;;3.50;2.92;;;9.00;99.90;;;;;;5106363;28;20459;-73
2022/09/23 06:18:04;;;;;;;3.05;2.75;;;9.10;99.90;;;;;;5100695;28;21039;-73
2022/09/23 06:20:30;;;;;;;3.30;3.00;;;9.30;99.90;;;;;;5055134;28;20392;-73
2022/09/23 06:23:05;;;;;;;4.45;3.10;;;9.30;99.90;;;;;;5085536;28;20388;-72
2022/09/23 06:25:32;;;;;;;3.20;3.00;;;9.30;99.90;;;;;;5073274;28;20429;-72
2022/09/23 06:27:58;;;;;;;4.10;2.95;;;9.40;99.90;;;;;;5076081;28;20465;-73
2022/09/23 06:30:25;;;;;;;3.50;3.20;;;9.50;99.90;;;;;;5081102;28;20446;-73
2022/09/23 06:32:52;;;;;;;3.88;3.00;;;9.50;99.90;;;;;;5103114;28;20863;-73
2022/09/23 06:35:23;;;;;;;3.40;2.90;;;9.40;99.90;;;;;;5095415;28;20738;-73
2022/09/23 06:37:49;;;;;;;3.05;2.85;;;9.50;99.90;;;;;;5094577;28;20389;-73
2022/09/23 06:40:15;;;;;;;3.20;3.00;;;9.50;99.90;;;;;;5092687;28;20495;-73
2022/09/23 06:42:41;;;;;;;3.77;3.10;;;9.60;99.90;;;;;;5074703;28;21000;-73
2022/09/23 06:45:11;;;;;;;3.17;2.88;;;9.70;99.90;;;;;;5075174;28;20378;-73
2022/09/23 06:47:38;;;;;;;3.22;2.92;;;9.70;99.90;;;;;;5103358;28;20794;-73
2022/09/23 06:50:04;;;;;;;3.05;2.72;;;9.80;99.90;;;;;;5073730;28;20426;-72
2022/09/23 06:52:30;;;;;;;3.17;2.80;;;9.90;99.90;;;;;;5072399;28;20479;-72
2022/09/23 06:54:56;;;;;;;2.58;2.25;;;9.90;99.90;;;;;;5100381;28;20472;-72
2022/09/23 06:57:21;;;;;;;3.38;3.08;;;10.00;99.90;;;;;;5106679;28;20410;-72
2022/09/23 06:59:47;;;;;;;3.33;2.60;;;10.20;99.90;;;;;;5101048;28;20380;-73
2022/09/23 07:02:13;;;;;;;3.20;2.60;;;10.20;99.90;;;;;;5112887;28;20457;-73
2022/09/23 07:04:38;;;;;;;3.17;2.90;;;10.20;99.90;;;;;;5100779;28;20410;-73
2022/09/23 07:07:04;;;;;;;4.00;2.80;;;10.30;99.90;;;;;;5092427;28;20378;-73
2022/09/23 07:09:29;;;;;;;4.00;3.40;;;10.40;99.90;;;;;;5088948;28;20407;-73
2022/09/23 07:11:55;;;;;;;4.38;2.97;;;10.50;99.90;;;;;;5089847;28;20431;-73
2022/09/23 07:14:21;;;;;;;3.22;2.80;;;10.60;99.90;;;;;;5090250;28;20394;-73
2022/09/23 07:16:52;;;;;;;3.75;2.90;;;10.60;99.90;;;;;;5079612;28;20419;-73
2022/09/23 07:19:17;;;;;;;3.30;3.00;;;10.80;99.90;;;;;;5077867;28;20798;-73
2022/09/23 07:21:43;;;;;;;3.70;3.30;;;10.70;99.90;;;;;;5090178;28;20401;-73
2022/09/23 07:24:08;;;;;;;3.77;2.90;;;10.80;99.90;;;;;;5081046;28;20401;-73
2022/09/23 07:26:34;;;;;;;5.80;3.10;;;10.90;99.90;;;;;;5086012;28;20899;-73
2022/09/23 07:29:04;;;;;;;4.03;3.20;;;11.00;99.90;;;;;;5077240;28;20438;-73
2022/09/23 07:31:34;;;;;;;3.30;3.00;;;11.00;99.90;;;;;;5120722;22;20863;-74
2022/09/23 07:34:01;;;;;;;3.17;2.83;;;11.20;99.90;;;;;;5102917;27;20423;-73
2022/09/23 07:36:27;;;;;;;3.40;3.10;;;11.20;99.90;;;;;;5108418;27;20925;-74
2022/09/23 07:39:01;;;;;;;3.50;3.00;;;11.30;99.90;;;;;;5105423;28;20516;-74
2022/09/23 07:41:27;;;;;;;3.15;2.85;;;11.30;99.90;;;;;;5100350;28;20392;-73
2022/09/23 07:43:57;;;;;;;3.80;3.50;;;11.40;99.90;;;;;;5083194;28;20406;-74
2022/09/23 07:46:28;;;;;;;4.50;3.70;;;11.40;99.90;;;;;;5101398;28;20487;-73
2022/09/23 07:48:54;;;;;;;4.65;3.30;;;11.50;99.90;;;;;;5092604;28;20447;-74
2022/09/23 07:51:25;;;;;;;3.60;3.20;;;11.60;99.90;;;;;;5088261;28;20404;-73
2022/09/23 07:53:52;;;;;;;3.70;3.10;;;11.60;99.90;;;;;;5098802;28;20493;-74
2022/09/23 07:56:19;;;;;;;4.38;3.53;;;11.70;99.90;;;;;;5095232;28;20879;-74
2022/09/23 07:58:58;;;;;;;3.35;3.05;;;11.70;99.90;;;;;;5096480;28;20896;-74
2022/09/23 08:01:28;;;;;;;4.65;3.05;;;11.80;99.90;;;;;;5091716;28;20398;-74
2022/09/23 08:03:59;;;;;;;7.40;3.30;;;11.90;99.90;;;;;;5078575;28;20483;-74
2022/09/23 08:06:25;;;;;;;4.30;3.10;;;12.00;99.90;;;;;;5091926;28;20386;-74
2022/09/23 08:08:51;;;;;;;4.10;3.20;;;12.10;99.90;;;;;;5091145;28;20398;-74
2022/09/23 08:11:17;;;;;;;43.53;34.95;;;12.20;99.90;;;;;;5090927;28;20385;-74
2022/09/23 08:13:43;;;;;;;11.87;10.57;;;12.20;99.90;;;;;;5082269;28;20398;-74
2022/09/23 08:16:08;;;;;;;3.30;3.00;;;12.30;99.90;;;;;;5080064;28;20390;-74
2022/09/23 08:18:34;;;;;;;3.40;3.10;;;12.50;99.90;;;;;;5095191;28;20874;-75
2022/09/23 08:21:00;;;;;;;4.43;3.35;;;12.60;99.90;;;;;;5086434;28;20400;-74
2022/09/23 08:23:26;;;;;;;3.50;3.17;;;12.60;99.90;;;;;;5087126;28;20943;-75
2022/09/23 08:25:58;;;;;;;3.67;3.15;;;12.60;99.90;;;;;;5069986;28;20851;-74
2022/09/23 08:28:24;;;;;;;3.55;2.97;;;12.80;99.90;;;;;;5074801;28;20410;-74
2022/09/23 08:30:50;;;;;;;3.72;3.22;;;12.90;99.90;;;;;;5075585;28;20794;-75
2022/09/23 08:33:16;;;;;;;3.80;2.78;;;13.00;99.90;;;;;;5087626;28;20370;-75
2022/09/23 08:35:41;;;;;;;5.50;3.05;;;13.10;99.90;;;;;;5089823;28;20409;-75
2022/09/23 08:38:07;;;;;;;3.10;2.80;;;13.20;99.90;;;;;;5089539;28;20378;-76
2022/09/23 08:40:37;;;;;;;3.20;2.90;;;13.30;99.90;;;;;;5090175;28;20404;-75
2022/09/23 08:43:06;;;;;;;3.20;2.90;;;13.40;99.90;;;;;;5072237;28;20417;-75
2022/09/23 08:45:35;;;;;;;3.60;3.30;;;13.50;99.90;;;;;;5090464;28;20378;-75
2022/09/23 08:48:07;;;;;;;3.30;3.00;;;13.60;99.90;;;;;;5090493;28;20432;-75
2022/09/23 08:50:44;;;;;;;3.72;3.42;;;13.70;99.90;;;;;;5090535;28;20401;-75
2022/09/23 08:53:21;;;;;;;4.30;3.30;;;13.70;99.90;;;;;;5071958;28;20389;-74
2022/09/23 08:55:49;;;;;;;3.95;3.00;;;13.80;99.90;;;;;;5090392;28;20867;-75
2022/09/23 08:58:38;;;;;;;3.40;3.10;;;14.10;99.90;;;;;;5090542;28;20397;-74
2022/09/23 09:01:04;;;;;;;5.10;3.13;;;14.20;99.90;;;;;;5090327;28;20933;-75
2022/09/23 09:03:35;;;;;;;3.80;3.03;;;14.30;99.90;;;;;;5090161;28;20379;-75
2022/09/23 09:06:02;;;;;;;2.92;2.63;;;14.40;99.90;;;;;;5072115;28;20382;-74
2022/09/23 09:08:32;;;;;;;3.20;2.88;;;14.50;99.90;;;;;;5090326;28;20412;-75
2022/09/23 09:10:58;;;;;;;3.00;2.70;;;14.60;99.90;;;;;;5089731;28;20874;-75
2022/09/23 09:13:32;;;;;;;3.80;2.93;;;14.80;99.90;;;;;;5072127;28;20914;-75
2022/09/23 09:16:14;;;;;;;3.45;2.70;;;14.90;99.90;;;;;;5090210;28;20473;-75
2022/09/23 09:18:51;;;;;;;3.57;3.27;;;15.00;99.90;;;;;;5090175;28;20884;-75
2022/09/23 09:21:17;;;;;;;4.53;3.95;;;15.00;99.90;;;;;;5072115;28;20386;-75
2022/09/23 09:23:55;;;;;;;4.10;3.55;;;15.20;99.90;;;;;;5077361;28;20398;-74
2022/09/23 09:26:26;;;;;;;3.42;3.13;;;15.20;99.90;;;;;;5070151;28;20853;-74
2022/09/23 09:29:12;;;;;;;4.95;3.15;;;15.50;99.90;;;;;;5069827;28;20470;-73
2022/09/23 09:31:47;;;;;;;4.93;3.78;;;15.60;99.90;;;;;;5069711;28;20387;-74
2022/09/23 09:34:35;;;;;;;3.88;3.33;;;15.60;99.90;;;;;;5069621;28;20481;-74
2022/09/23 09:37:14;;;;;;;4.05;3.53;;;15.60;99.90;;;;;;5070115;28;20462;-74
2022/09/23 09:39:39;;;;;;;5.80;4.18;;;15.70;99.90;;;;;;5069486;28;20383;-74
2022/09/23 09:42:06;;;;;;;4.28;3.88;;;15.80;99.90;;;;;;5069745;28;20375;-74
2022/09/23 09:44:51;;;;;;;5.20;3.97;;;16.00;99.90;;;;;;5069507;28;20380;-74
2022/09/23 09:47:45;;;;;;;4.00;3.60;;;16.10;99.90;;;;;;5051690;28;20403;-75
2022/09/23 09:50:19;;;;;;;5.13;3.80;;;16.00;99.90;;;;;;5069703;28;20383;-74
2022/09/23 09:52:44;;;;;;;5.07;3.65;;;16.10;99.90;;;;;;5069427;28;20379;-75
2022/09/23 09:55:13;;;;;;;4.25;3.67;;;16.20;99.90;;;;;;5069801;28;20877;-75
2022/09/23 09:57:49;;;;;;;4.18;3.65;;;16.20;99.90;;;;;;5069791;28;20427;-75
2022/09/23 10:00:34;;;;;;;4.53;3.60;;;16.30;99.90;;;;;;5051840;28;20406;-75
2022/09/23 10:03:12;;;;;;;3.90;3.60;;;16.30;99.90;;;;;;5069459;28;20394;-72
2022/09/23 10:05:46;;;;;;;6.18;4.00;;;16.40;99.90;;;;;;5069672;28;20411;-74
2022/09/23 10:08:17;;;;;;;4.30;3.90;;;16.50;99.90;;;;;;5069415;28;20411;-75
2022/09/23 10:10:58;;;;;;;4.15;3.40;;;16.60;99.90;;;;;;5069505;28;20387;-75
2022/09/23 10:13:29;;;;;;;4.90;3.95;;;16.70;99.90;;;;;;5069355;28;20850;-73
2022/09/23 10:15:57;;;;;;;4.70;4.30;;;16.80;99.90;;;;;;5051610;28;20478;-72
2022/09/23 10:18:47;;;;;;;5.20;4.13;;;16.80;99.90;;;;;;5069632;28;20807;-75
2022/09/23 10:21:16;;;;;;;4.00;3.70;;;17.00;99.90;;;;;;5069480;28;20414;-75
2022/09/23 10:23:44;;;;;;;4.05;3.65;;;17.00;99.90;;;;;;5052978;28;20400;-71
2022/09/23 10:26:11;;;;;;;5.33;3.30;;;17.10;99.90;;;;;;5073044;28;20440;-73
2022/09/23 10:28:50;;;;;;;4.15;3.75;;;17.10;99.90;;;;;;5072996;28;20411;-75
2022/09/23 10:31:30;;;;;;;5.10;3.60;;;17.20;99.90;;;;;;5072659;28;20442;-75
2022/09/23 10:34:01;;;;;;;4.78;3.35;;;17.20;99.90;;;;;;5072757;28;20380;-75
2022/09/23 10:36:31;;;;;;;4.70;3.30;;;17.50;99.90;;;;;;5072934;28;20380;-75
2022/09/23 10:48:13;;;;;;;4.30;2.60;;;18.10;99.90;;;;;;5072664;28;20491;-73
2022/09/23 10:50:47;;;;;;;2.38;2.17;;;18.30;99.30;;;;;;5072571;28;20449;-73
2022/09/23 10:53:18;;;;;;;2.60;2.40;;;18.40;96.20;;;;;;5072462;28;20406;-73
2022/09/23 10:55:49;;;;;;;3.30;2.30;;;18.70;96.10;;;;;;5072552;28;20384;-73
2022/09/23 10:58:43;;;;;;;2.78;2.47;;;18.70;94.50;;;;;;5072313;28;20386;-74
2022/09/23 11:01:33;;;;;;;3.45;2.22;;;18.90;93.20;;;;;;5072398;28;20533;-73
2022/09/23 11:04:27;;;;;;;2.50;2.30;;;18.80;92.50;;;;;;5072115;28;20898;-72
2022/09/23 11:07:06;;;;;;;2.40;2.20;;;19.20;91.50;;;;;;5072067;28;20391;-73
2022/09/23 11:09:50;;;;;;;4.00;2.10;;;19.10;88.30;;;;;;5071997;28;20405;-72
2022/09/23 11:12:49;;;;;;;2.97;2.00;;;19.30;83.60;;;;;;5054051;28;20938;-74
2022/09/23 11:15:37;;;;;;;2.38;2.17;;;19.60;82.70;;;;;;5071927;28;20437;-73
2022/09/23 11:18:37;;;;;;;3.28;2.00;;;19.80;80.80;;;;;;5071920;28;20394;-73
2022/09/23 11:21:21;;;;;;;2.42;2.20;;;20.20;80.10;;;;;;5071943;28;20390;-73
2022/09/23 11:24:06;;;;;;;3.40;2.00;;;21.10;76.00;;;;;;5071501;28;20838;-74
2022/09/23 11:26:52;;;;;;;2.47;2.10;;;21.90;71.90;;;;;;5084772;28;20402;-74
2022/09/23 11:29:31;;;;;;;3.65;2.08;;;22.20;72.10;;;;;;5039362;28;20427;-75
2022/09/23 11:32:21;;;;;;;3.42;2.08;;;22.60;68.30;;;;;;5084626;28;20884;-74
2022/09/23 11:35:08;;;;;;;2.30;2.10;;;23.10;63.30;;;;;;5083153;28;20402;-75
2022/09/23 11:37:41;;;;;;;2.35;1.92;;;23.20;62.90;;;;;;5085828;28;20483;-75
2022/09/23 11:40:15;;;;;;;3.00;2.00;;;23.70;62.10;;;;;;5072413;28;20398;-74
2022/09/23 11:42:57;;;;;;;2.10;1.90;;;23.80;59.40;;;;;;5082031;28;20400;-75
2022/09/23 11:45:29;;;;;;;2.30;2.10;;;23.30;59.80;;;;;;5072401;28;20794;-75
2022/09/23 11:48:03;;;;;;;2.90;2.40;;;22.80;61.90;;;;;;5070861;28;20423;-75
2022/09/23 11:50:35;;;;;;;2.80;1.87;;;23.00;62.90;;;;;;5071671;28;20375;-73
2022/09/23 11:53:14;;;;;;;2.90;2.10;;;23.20;61.10;;;;;;5074144;28;20376;-72
2022/09/23 11:56:06;;;;;;;2.67;1.80;;;22.70;64.50;;;;;;5071826;28;20368;-73
2022/09/23 11:58:44;;;;;;;2.22;2.03;;;22.70;63.00;;;;;;5071688;28;20382;-72
2022/09/23 12:01:22;;;;;;;3.58;2.00;;;23.10;62.30;;;;;;5078832;28;20402;-73
2022/09/23 12:03:56;;;;;;;2.90;2.05;;;23.20;63.30;;;;;;5073538;28;20398;-72
2022/09/23 12:06:32;;;;;;;2.13;2.03;;;23.10;62.00;;;;;;5079133;28;20404;-72
2022/09/23 12:09:09;;;;;;;2.60;2.15;;;22.80;61.40;;;;;;5072451;28;20757;-72
2022/09/23 12:11:48;;;;;;;3.60;2.15;;;22.40;60.50;;;;;;5080196;28;20394;-73
2022/09/23 12:14:41;;;;;;;2.72;2.10;;;22.70;60.90;;;;;;5091011;28;20392;-73
2022/09/23 12:17:39;;;;;;;2.88;2.10;;;22.60;63.30;;;;;;5101487;28;20457;-73
2022/09/23 12:20:16;;;;;;;2.40;2.20;;;22.30;60.60;;;;;;5054461;28;20387;-73
2022/09/23 12:22:52;;;;;;;1.87;1.77;;;22.30;61.30;;;;;;5074475;28;20767;-74
2022/09/23 12:25:45;;;;;;;3.60;1.70;;;22.20;66.00;;;;;;5071274;28;20419;-71
2022/09/23 12:28:30;;;;;;;3.20;2.30;;;22.20;62.80;;;;;;5083000;28;20417;-73
2022/09/23 12:30:58;;;;;;;2.50;1.90;;;22.10;61.60;;;;;;5090964;28;20412;-73
2022/09/23 12:33:29;;;;;;;2.20;1.97;;;21.90;63.90;;;;;;5084478;28;20825;-73
2022/09/23 12:36:11;;;;;;;2.40;2.20;;;21.90;64.60;;;;;;5087389;28;20902;-74
2022/09/23 12:38:48;;;;;;;2.20;2.00;;;21.70;66.90;;;;;;5069465;28;20758;-73
2022/09/23 12:41:34;;;;;;;2.70;2.50;;;21.80;69.60;;;;;;5052454;28;20911;-72
2022/09/23 12:44:22;;;;;;;4.65;2.35;;;21.80;65.10;;;;;;5070202;28;20437;-72
2022/09/23 12:47:07;;;;;;;3.10;2.10;;;21.60;65.70;;;;;;5069728;28;20390;-72
2022/09/23 12:49:36;;;;;;;2.30;2.10;;;21.50;65.50;;;;;;5070018;28;20415;-72
2022/09/23 12:52:12;;;;;;;2.72;2.53;;;21.90;68.20;;;;;;5081501;28;20374;-72
2022/09/23 12:54:39;;;;;;;3.58;2.10;;;21.70;67.70;;;;;;5074098;28;20384;-72
2022/09/23 12:57:12;;;;;;;2.42;2.13;;;21.80;68.30;;;;;;5081795;28;20444;-73
2022/09/23 12:59:50;;;;;;;2.80;2.00;;;21.80;69.20;;;;;;5081423;28;20374;-73
2022/09/23 13:02:45;;;;;;;2.55;2.30;;;21.70;69.50;;;;;;5079744;28;20752;-72
2022/09/23 13:08:15;;;;;;;2.97;2.33;;;21.70;69.50;;;;;;5081644;28;20410;-73
2022/09/23 13:10:51;;;;;;;4.50;2.10;;;21.50;73.50;;;;;;5087894;28;20382;-72
2022/09/23 13:13:23;;;;;;;3.72;2.30;;;21.40;75.30;;;;;;5081808;28;20401;-73
2022/09/23 13:15:49;;;;;;;2.55;2.10;;;21.20;71.50;;;;;;5071912;28;20394;-74
2022/09/23 13:18:20;;;;;;;3.03;2.20;;;21.20;76.00;;;;;;5084312;28;20445;-74
2022/09/23 13:20:47;;;;;;;2.10;2.00;;;21.20;77.00;;;;;;5086867;28;20390;-75
2022/09/23 13:23:23;;;;;;;2.33;2.13;;;21.30;75.50;;;;;;5079283;28;20452;-75
2022/09/23 13:25:55;;;;;;;2.20;2.00;;;21.60;80.60;;;;;;5080601;28;20415;-74
2022/09/23 13:28:27;;;;;;;2.50;2.17;;;21.50;78.00;;;;;;5086376;28;20438;-74
2022/09/23 13:30:53;;;;;;;3.85;2.33;;;21.70;77.00;;;;;;5112211;22;20439;-73
2022/09/23 13:33:41;;;;;;;3.50;2.03;;;21.60;76.50;;;;;;5107455;28;20404;-74
2022/09/23 13:36:13;;;;;;;2.50;2.30;;;21.60;80.70;;;;;;5106897;28;20384;-72